createdAt,value
2017-11-08T00:00:54.721Z,72.6
2017-11-08T00:01:57.100Z,72.5
2017-11-08T00:02:59.581Z,72.5
2017-11-08T00:04:01.989Z,72.5
2017-11-08T00:05:04.363Z,72.5
2017-11-08T00:06:06.843Z,72.5
2017-11-08T00:07:09.246Z,72.5
2017-11-08T00:08:11.795Z,72.5
2017-11-08T00:09:14.162Z,72.4
2017-11-08T00:10:17.277Z,72.2
2017-11-08T00:11:19.799Z,72.3
2017-11-08T00:12:22.536Z,72.2
2017-11-08T00:13:25.074Z,72.3
2017-11-08T00:14:27.430Z,72.4
2017-11-08T00:15:30.007Z,72.5
2017-11-08T00:16:32.374Z,72.6
2017-11-08T00:17:34.748Z,72.6
2017-11-08T00:18:37.218Z,72.8
2017-11-08T00:19:39.588Z,72.9
2017-11-08T00:20:42.217Z,72.8
2017-11-08T00:21:44.587Z,72.7
2017-11-08T00:22:47.313Z,72.7
2017-11-08T00:23:49.792Z,72.7
2017-11-08T00:24:52.160Z,72.7
2017-11-08T00:25:54.737Z,72.8
2017-11-08T00:26:57.101Z,72.8
2017-11-08T00:27:59.474Z,72.9
2017-11-08T00:29:02.361Z,72.8
2017-11-08T00:30:04.725Z,72.9
2017-11-08T00:31:07.107Z,72.7
2017-11-08T00:32:09.483Z,72.8
2017-11-08T00:33:12.288Z,72.8
2017-11-08T00:34:15.011Z,72.8
2017-11-08T00:35:17.386Z,72.8
2017-11-08T00:36:20.032Z,72.6
2017-11-08T00:37:22.401Z,72.5
2017-11-08T00:38:24.768Z,72.5
2017-11-08T00:39:27.139Z,72.6
2017-11-08T00:40:29.522Z,72.4
2017-11-08T00:41:31.980Z,72.4
2017-11-08T00:42:34.359Z,72.5
2017-11-08T00:43:36.788Z,72.4
2017-11-08T00:44:39.215Z,72.5
2017-11-08T00:45:41.679Z,72.5
2017-11-08T00:46:44.051Z,72.7
2017-11-08T00:47:46.524Z,72.7
2017-11-08T00:48:49.023Z,72.5
2017-11-08T00:49:51.384Z,72.4
2017-11-08T00:50:53.763Z,72.4
2017-11-08T00:51:56.485Z,72.3
2017-11-08T00:52:58.857Z,72.4
2017-11-08T00:54:01.225Z,72.4
2017-11-08T00:55:03.615Z,72.3
2017-11-08T00:56:05.994Z,72.4
2017-11-08T00:57:08.396Z,72.5
2017-11-08T00:58:11.048Z,72.4
2017-11-08T00:59:13.969Z,72.5
2017-11-08T01:00:16.358Z,72.5
2017-11-08T01:01:18.861Z,72.5
2017-11-08T01:02:21.349Z,72.5
2017-11-08T01:03:24.416Z,72.5
2017-11-08T01:04:26.790Z,72.6
2017-11-08T01:05:29.152Z,72.7
2017-11-08T01:06:31.540Z,72.8
2017-11-08T01:07:33.924Z,72.8
2017-11-08T01:08:36.283Z,72.8
2017-11-08T01:09:38.651Z,72.7
2017-11-08T01:10:41.029Z,72.7
2017-11-08T01:11:43.401Z,72.7
2017-11-08T01:12:45.780Z,72.8
2017-11-08T01:13:48.137Z,72.9
2017-11-08T01:14:50.513Z,72.9
2017-11-08T01:15:52.880Z,72.9
2017-11-08T01:16:55.260Z,72.9
2017-11-08T01:17:57.634Z,72.8
2017-11-08T01:19:00.008Z,72.9
2017-11-08T01:20:02.382Z,72.9
2017-11-08T01:21:04.764Z,73
2017-11-08T01:22:07.135Z,73
2017-11-08T01:23:09.512Z,72.9
2017-11-08T01:24:11.892Z,73
2017-11-08T01:25:14.255Z,73
2017-11-08T01:26:16.975Z,73.1
2017-11-08T01:27:19.347Z,73.2
2017-11-08T01:28:21.714Z,73.1
2017-11-08T01:29:24.095Z,73
2017-11-08T01:30:26.825Z,72.9
2017-11-08T01:31:29.186Z,73
2017-11-08T01:32:31.571Z,73.1
2017-11-08T01:33:33.940Z,73.1
2017-11-08T01:34:36.306Z,73
2017-11-08T01:35:38.684Z,73.1
2017-11-08T01:36:41.054Z,73.1
2017-11-08T01:37:43.429Z,73.1
2017-11-08T01:38:45.810Z,73
2017-11-08T01:39:48.183Z,72.9
2017-11-08T01:40:50.549Z,72.9
2017-11-08T01:41:53.272Z,72.8
2017-11-08T01:42:55.642Z,72.8
2017-11-08T01:43:58.018Z,72.8
2017-11-08T01:45:00.391Z,72.9
2017-11-08T01:46:02.761Z,72.9
2017-11-08T01:47:05.151Z,72.9
2017-11-08T01:48:07.523Z,72.9
2017-11-08T01:49:09.905Z,72.9
2017-11-08T01:50:12.982Z,73
2017-11-08T01:51:15.348Z,73.1
2017-11-08T01:52:17.718Z,73
2017-11-08T01:53:20.094Z,72.9
2017-11-08T01:54:22.466Z,73
2017-11-08T01:55:24.849Z,72.9
2017-11-08T01:56:27.204Z,72.9
2017-11-08T01:57:29.575Z,72.8
2017-11-08T01:58:31.953Z,72.8
2017-11-08T01:59:34.325Z,72.8
2017-11-08T02:00:37.062Z,72.8
2017-11-08T02:01:39.435Z,72.8
2017-11-08T02:02:41.796Z,72.9
2017-11-08T02:03:44.173Z,72.9
2017-11-08T02:04:46.561Z,72.9
2017-11-08T02:05:48.916Z,72.9
2017-11-08T02:06:51.288Z,72.9
2017-11-08T02:07:53.671Z,72.9
2017-11-08T02:08:56.044Z,73
2017-11-08T02:09:58.423Z,72.9
2017-11-08T02:11:00.784Z,72.9
2017-11-08T02:12:03.155Z,72.9
2017-11-08T02:13:05.530Z,73
2017-11-08T02:14:08.275Z,73.1
2017-11-08T02:15:10.651Z,73
2017-11-08T02:16:13.373Z,73
2017-11-08T02:17:15.745Z,73
2017-11-08T02:18:18.130Z,73.1
2017-11-08T02:19:20.503Z,73
2017-11-08T02:20:23.213Z,73
2017-11-08T02:21:25.580Z,73
2017-11-08T02:22:27.962Z,73
2017-11-08T02:23:30.336Z,73
2017-11-08T02:24:32.716Z,73
2017-11-08T02:25:35.086Z,73.1
2017-11-08T02:26:37.464Z,73.1
2017-11-08T02:27:39.826Z,73.1
2017-11-08T02:28:42.201Z,73.1
2017-11-08T02:29:44.566Z,73.1
2017-11-08T02:30:46.942Z,73.1
2017-11-08T02:31:49.316Z,73.1
2017-11-08T02:32:51.689Z,73
2017-11-08T02:33:54.420Z,73.1
2017-11-08T02:34:57.155Z,73
2017-11-08T02:35:59.516Z,72.9
2017-11-08T02:37:01.896Z,72.9
2017-11-08T02:38:04.265Z,72.7
2017-11-08T02:39:06.633Z,72.8
2017-11-08T02:40:09.011Z,72.9
2017-11-08T02:41:11.390Z,73
2017-11-08T02:42:13.762Z,73.1
2017-11-08T02:43:16.149Z,73
2017-11-08T02:44:18.509Z,73
2017-11-08T02:45:21.236Z,73.2
2017-11-08T02:46:23.613Z,73
2017-11-08T02:47:25.982Z,73.1
2017-11-08T02:48:28.357Z,73.2
2017-11-08T02:49:30.736Z,73.1
2017-11-08T02:50:33.102Z,73.2
2017-11-08T02:51:35.472Z,73.1
2017-11-08T02:52:38.189Z,73.2
2017-11-08T02:53:41.281Z,73.3
2017-11-08T02:54:43.657Z,73.4
2017-11-08T02:55:46.376Z,73.4
2017-11-08T02:56:48.748Z,73.3
2017-11-08T02:57:51.472Z,73.2
2017-11-08T02:58:53.852Z,73.2
2017-11-08T02:59:56.232Z,73.2
2017-11-08T03:00:59.648Z,73.3
2017-11-08T03:02:02.051Z,73.3
2017-11-08T03:03:04.795Z,73.3
2017-11-08T03:04:07.168Z,73.3
2017-11-08T03:05:09.541Z,73.3
2017-11-08T03:06:11.915Z,73.3
2017-11-08T03:07:14.278Z,73.3
2017-11-08T03:08:16.663Z,73.1
2017-11-08T03:09:19.041Z,73.1
2017-11-08T03:10:21.409Z,73.1
2017-11-08T03:11:23.788Z,73.1
2017-11-08T03:12:26.174Z,73.2
2017-11-08T03:13:28.543Z,73.3
2017-11-08T03:14:30.913Z,73.3
2017-11-08T03:15:33.276Z,73.3
2017-11-08T03:16:35.645Z,73.4
2017-11-08T03:17:38.031Z,73.3
2017-11-08T03:18:40.408Z,73.3
2017-11-08T03:19:42.772Z,73.5
2017-11-08T03:20:45.154Z,73.4
2017-11-08T03:21:47.522Z,73.4
2017-11-08T03:22:49.893Z,73.4
2017-11-08T03:23:52.270Z,73.3
2017-11-08T03:24:54.645Z,73.2
2017-11-08T03:25:57.026Z,73.2
2017-11-08T03:26:59.415Z,73.2
2017-11-08T03:28:01.780Z,73
2017-11-08T03:29:04.147Z,73
2017-11-08T03:30:06.526Z,73
2017-11-08T03:31:08.899Z,73
2017-11-08T03:32:11.272Z,72.9
2017-11-08T03:33:13.645Z,73
2017-11-08T03:34:16.032Z,73
2017-11-08T03:35:18.397Z,73
2017-11-08T03:36:20.782Z,73
2017-11-08T03:37:23.505Z,73.1
2017-11-08T03:38:26.223Z,73
2017-11-08T03:39:28.948Z,73
2017-11-08T03:40:31.323Z,73.2
2017-11-08T03:41:33.691Z,73.2
2017-11-08T03:42:36.068Z,73.4
2017-11-08T03:43:38.424Z,73.4
2017-11-08T03:44:40.798Z,73.5
2017-11-08T03:45:43.187Z,73.4
2017-11-08T03:46:45.560Z,73.4
2017-11-08T03:47:47.938Z,73.4
2017-11-08T03:48:50.311Z,73.4
2017-11-08T03:49:52.690Z,73.4
2017-11-08T03:50:55.393Z,73.4
2017-11-08T03:51:57.771Z,73.4
2017-11-08T03:53:00.147Z,73.5
2017-11-08T03:54:02.895Z,73.5
2017-11-08T03:55:05.274Z,73.5
2017-11-08T03:56:07.648Z,73.5
2017-11-08T03:57:10.020Z,73.5
2017-11-08T03:58:12.755Z,73.5
2017-11-08T03:59:15.134Z,73.4
2017-11-08T04:00:17.843Z,73.5
2017-11-08T04:01:20.223Z,73.5
2017-11-08T04:02:22.598Z,73.6
2017-11-08T04:03:24.969Z,73.5
2017-11-08T04:04:27.341Z,73.5
2017-11-08T04:05:29.710Z,73.5
2017-11-08T04:06:32.085Z,73.5
2017-11-08T04:07:34.466Z,73.6
2017-11-08T04:08:36.828Z,73.6
2017-11-08T04:09:39.191Z,73.5
2017-11-08T04:10:41.566Z,73.5
2017-11-08T04:11:43.937Z,73.4
2017-11-08T04:12:47.009Z,73.4
2017-11-08T04:13:49.384Z,73.3
2017-11-08T04:14:51.749Z,73.3
2017-11-08T04:15:54.128Z,73.3
2017-11-08T04:16:56.877Z,73.3
2017-11-08T04:17:59.244Z,73.2
2017-11-08T04:19:01.621Z,73.2
2017-11-08T04:20:03.989Z,73.3
2017-11-08T04:21:06.720Z,73.3
2017-11-08T04:22:09.158Z,73.3
2017-11-08T04:23:11.524Z,73.3
2017-11-08T04:24:13.921Z,73.3
2017-11-08T04:25:16.297Z,73.5
2017-11-08T04:26:18.665Z,73.4
2017-11-08T04:27:21.043Z,73.5
2017-11-08T04:28:23.799Z,73.5
2017-11-08T04:29:26.179Z,73.5
2017-11-08T04:30:28.551Z,73.7
2017-11-08T04:31:30.918Z,73.6
2017-11-08T04:32:33.282Z,73.6
2017-11-08T04:33:35.668Z,73.5
2017-11-08T04:34:38.041Z,73.4
2017-11-08T04:35:40.767Z,73.4
2017-11-08T04:36:43.490Z,73.4
2017-11-08T04:37:45.866Z,73.3
2017-11-08T04:38:48.245Z,73.4
2017-11-08T04:39:50.622Z,73.3
2017-11-08T04:40:52.987Z,73.5
2017-11-08T04:41:55.380Z,73.5
2017-11-08T04:42:57.740Z,73.5
2017-11-08T04:44:00.110Z,73.5
2017-11-08T04:45:02.499Z,73.6
2017-11-08T04:46:04.874Z,73.6
2017-11-08T04:47:07.248Z,73.6
2017-11-08T04:48:09.638Z,73.5
2017-11-08T04:49:12.018Z,73.3
2017-11-08T04:50:14.380Z,73.3
2017-11-08T04:51:17.127Z,73.4
2017-11-08T04:52:19.844Z,73.4
2017-11-08T04:53:22.217Z,73.5
2017-11-08T04:54:24.591Z,73.4
2017-11-08T04:55:27.326Z,73.5
2017-11-08T04:56:29.693Z,73.7
2017-11-08T04:57:32.436Z,73.6
2017-11-08T04:58:35.153Z,73.7
2017-11-08T04:59:37.534Z,73.7
2017-11-08T05:00:40.254Z,73.6
2017-11-08T05:01:42.628Z,73.7
2017-11-08T05:02:44.996Z,73.7
2017-11-08T05:03:47.370Z,73.6
2017-11-08T05:04:49.743Z,73.7
2017-11-08T05:05:52.458Z,73.6
2017-11-08T05:06:54.828Z,73.5
2017-11-08T05:07:57.212Z,73.5
2017-11-08T05:08:59.575Z,73.6
2017-11-08T05:10:01.956Z,73.5
2017-11-08T05:11:04.335Z,73.5
2017-11-08T05:12:06.717Z,73.5
2017-11-08T05:13:09.482Z,73.5
2017-11-08T05:14:11.861Z,73.5
2017-11-08T05:15:14.229Z,73.5
2017-11-08T05:16:16.616Z,73.5
2017-11-08T05:17:18.994Z,73.5
2017-11-08T05:18:21.361Z,73.5
2017-11-08T05:19:23.735Z,73.5
2017-11-08T05:20:26.472Z,73.6
2017-11-08T05:21:28.853Z,73.6
2017-11-08T05:22:31.233Z,73.6
2017-11-08T05:23:33.595Z,73.7
2017-11-08T05:24:35.967Z,73.9
2017-11-08T05:25:38.346Z,73.9
2017-11-08T05:26:40.725Z,73.8
2017-11-08T05:27:43.095Z,73.7
2017-11-08T05:28:45.462Z,73.5
2017-11-08T05:29:47.828Z,73.5
2017-11-08T05:30:50.215Z,73.3
2017-11-08T05:31:52.594Z,73.3
2017-11-08T05:32:54.961Z,73.4
2017-11-08T05:33:57.706Z,73.4
2017-11-08T05:35:00.090Z,73.6
2017-11-08T05:36:02.474Z,73.5
2017-11-08T05:37:04.837Z,73.5
2017-11-08T05:38:07.206Z,73.7
2017-11-08T05:39:09.586Z,73.6
2017-11-08T05:40:11.965Z,73.6
2017-11-08T05:41:14.328Z,73.5
2017-11-08T05:42:16.711Z,73.5
2017-11-08T05:43:19.081Z,73.5
2017-11-08T05:44:21.803Z,73.5
2017-11-08T05:45:24.178Z,73.7
2017-11-08T05:46:26.546Z,73.7
2017-11-08T05:47:28.921Z,73.7
2017-11-08T05:48:31.290Z,73.7
2017-11-08T05:49:33.663Z,73.7
2017-11-08T05:50:36.042Z,73.9
2017-11-08T05:51:38.414Z,74
2017-11-08T05:52:40.790Z,73.9
2017-11-08T05:53:43.171Z,73.8
2017-11-08T05:54:45.533Z,73.8
2017-11-08T05:55:47.918Z,73.8
2017-11-08T05:56:50.282Z,73.7
2017-11-08T05:57:52.657Z,73.7
2017-11-08T05:58:55.024Z,73.9
2017-11-08T05:59:57.406Z,73.9
2017-11-08T06:00:59.776Z,73.9
2017-11-08T06:02:02.159Z,73.9
2017-11-08T06:03:04.527Z,73.9
2017-11-08T06:04:06.905Z,73.8
2017-11-08T06:05:09.633Z,73.7
2017-11-08T06:06:12.348Z,73.6
2017-11-08T06:07:14.787Z,73.8
2017-11-08T06:08:17.162Z,73.6
2017-11-08T06:09:19.536Z,73.8
2017-11-08T06:10:21.915Z,73.9
2017-11-08T06:11:24.290Z,73.8
2017-11-08T06:12:27.008Z,73.8
2017-11-08T06:13:29.396Z,73.9
2017-11-08T06:14:31.764Z,73.8
2017-11-08T06:15:34.182Z,73.8
2017-11-08T06:16:36.552Z,73.9
2017-11-08T06:17:38.920Z,74
2017-11-08T06:18:41.284Z,74.1
2017-11-08T06:19:43.671Z,74.1
2017-11-08T06:20:46.045Z,74
2017-11-08T06:21:48.423Z,74.1
2017-11-08T06:22:50.799Z,74
2017-11-08T06:23:53.172Z,73.9
2017-11-08T06:24:55.549Z,73.8
2017-11-08T06:25:58.288Z,73.8
2017-11-08T06:27:00.658Z,73.8
2017-11-08T06:28:03.387Z,73.8
2017-11-08T06:29:05.755Z,73.6
2017-11-08T06:30:08.144Z,73.5
2017-11-08T06:31:10.519Z,73.6
2017-11-08T06:32:12.897Z,73.6
2017-11-08T06:33:15.270Z,73.5
2017-11-08T06:34:17.651Z,73.8
2017-11-08T06:35:20.025Z,73.8
2017-11-08T06:36:22.407Z,73.8
2017-11-08T06:37:25.123Z,73.8
2017-11-08T06:38:27.847Z,73.7
2017-11-08T06:39:30.244Z,73.7
2017-11-08T06:40:32.604Z,73.9
2017-11-08T06:41:34.976Z,73.9
2017-11-08T06:42:37.351Z,73.9
2017-11-08T06:43:39.728Z,73.9
2017-11-08T06:44:42.462Z,73.9
2017-11-08T06:45:44.841Z,73.9
2017-11-08T06:46:47.212Z,73.8
2017-11-08T06:47:49.594Z,73.8
2017-11-08T06:48:51.974Z,73.8
2017-11-08T06:49:54.343Z,73.7
2017-11-08T06:50:56.716Z,73.7
2017-11-08T06:51:59.096Z,73.7
2017-11-08T06:53:01.463Z,73.7
2017-11-08T06:54:03.836Z,73.8
2017-11-08T06:55:06.222Z,73.8
2017-11-08T06:56:08.597Z,73.8
2017-11-08T06:57:10.979Z,73.7
2017-11-08T06:58:13.350Z,73.8
2017-11-08T06:59:16.066Z,73.9
2017-11-08T07:00:18.440Z,73.9
2017-11-08T07:01:20.825Z,73.8
2017-11-08T07:02:23.542Z,73.7
2017-11-08T07:03:25.926Z,73.8
2017-11-08T07:04:28.672Z,73.8
2017-11-08T07:05:31.041Z,73.8
2017-11-08T07:06:33.774Z,73.8
2017-11-08T07:07:36.482Z,73.7
2017-11-08T07:08:38.859Z,73.7
2017-11-08T07:09:41.233Z,73.8
2017-11-08T07:10:43.608Z,73.8
2017-11-08T07:11:46.330Z,73.8
2017-11-08T07:12:48.715Z,73.7
2017-11-08T07:13:51.443Z,73.7
2017-11-08T07:14:53.811Z,73.5
2017-11-08T07:15:56.187Z,73.6
2017-11-08T07:16:58.560Z,73.7
2017-11-08T07:18:00.949Z,73.8
2017-11-08T07:19:03.336Z,73.8
2017-11-08T07:20:05.696Z,73.8
2017-11-08T07:21:08.080Z,73.7
2017-11-08T07:22:10.818Z,73.8
2017-11-08T07:23:13.194Z,73.8
2017-11-08T07:24:15.924Z,73.7
2017-11-08T07:25:18.296Z,73.9
2017-11-08T07:26:20.668Z,73.8
2017-11-08T07:27:23.054Z,73.8
2017-11-08T07:28:25.802Z,73.9
2017-11-08T07:29:28.166Z,73.9
2017-11-08T07:30:30.541Z,73.9
2017-11-08T07:31:32.916Z,73.8
2017-11-08T07:32:35.295Z,73.8
2017-11-08T07:33:37.676Z,73.8
2017-11-08T07:34:40.040Z,73.7
2017-11-08T07:35:42.408Z,73.7
2017-11-08T07:36:44.793Z,73.5
2017-11-08T07:37:47.164Z,73.6
2017-11-08T07:38:49.531Z,73.6
2017-11-08T07:39:51.905Z,73.7
2017-11-08T07:40:54.278Z,73.6
2017-11-08T07:41:56.663Z,73.7
2017-11-08T07:42:59.055Z,73.7
2017-11-08T07:44:01.796Z,73.7
2017-11-08T07:45:04.175Z,73.6
2017-11-08T07:46:06.555Z,73.5
2017-11-08T07:47:08.944Z,73.6
2017-11-08T07:48:11.312Z,73.6
2017-11-08T07:49:13.686Z,73.7
2017-11-08T07:50:16.064Z,73.7
2017-11-08T07:51:18.437Z,73.6
2017-11-08T07:52:20.846Z,73.6
2017-11-08T07:53:23.277Z,73.7
2017-11-08T07:54:25.726Z,73.6
2017-11-08T07:55:28.164Z,73.6
2017-11-08T07:56:30.606Z,73.6
2017-11-08T07:57:33.086Z,73.7
2017-11-08T07:58:35.571Z,74
2017-11-08T07:59:38.012Z,74
2017-11-08T08:00:40.484Z,74.1
2017-11-08T08:01:42.973Z,74.2
2017-11-08T08:02:45.394Z,74.4
2017-11-08T08:03:47.840Z,74.7
2017-11-08T08:04:50.641Z,75
2017-11-08T08:05:53.124Z,75.2
2017-11-08T08:06:55.578Z,75.1
2017-11-08T08:07:58.017Z,75.1
2017-11-08T08:09:00.792Z,75
2017-11-08T08:10:03.247Z,75
2017-11-08T08:11:05.777Z,74.9
2017-11-08T08:12:08.204Z,74.7
2017-11-08T08:13:10.675Z,74.7
2017-11-08T08:14:13.476Z,74.4
2017-11-08T08:15:16.693Z,74.4
2017-11-08T08:16:19.126Z,74.1
2017-11-08T08:17:21.572Z,73.9
2017-11-08T08:18:24.016Z,73.9
2017-11-08T08:19:26.557Z,73.8
2017-11-08T08:20:29.063Z,73.6
2017-11-08T08:21:31.522Z,73.7
2017-11-08T08:22:33.944Z,73.5
2017-11-08T08:23:36.391Z,73.5
2017-11-08T08:24:38.943Z,73.5
2017-11-08T08:25:41.372Z,73.5
2017-11-08T08:26:43.940Z,73.5
2017-11-08T08:27:46.730Z,73.6
2017-11-08T08:28:49.595Z,73.6
2017-11-08T08:29:52.203Z,73.8
2017-11-08T08:30:54.641Z,73.9
2017-11-08T08:31:57.430Z,73.8
2017-11-08T08:32:59.873Z,73.8
2017-11-08T08:34:02.302Z,73.8
2017-11-08T08:35:04.730Z,73.8
2017-11-08T08:36:07.188Z,73.7
2017-11-08T08:37:09.621Z,73.9
2017-11-08T08:38:12.054Z,73.8
2017-11-08T08:39:14.489Z,73.8
2017-11-08T08:40:17.297Z,74.1
2017-11-08T08:41:19.738Z,74.1
2017-11-08T08:42:22.530Z,74.2
2017-11-08T08:43:24.959Z,74.2
2017-11-08T08:44:27.390Z,74.1
2017-11-08T08:45:29.882Z,74.1
2017-11-08T08:46:32.407Z,74.1
2017-11-08T08:47:34.841Z,74
2017-11-08T08:48:37.273Z,73.9
2017-11-08T08:49:39.706Z,73.9
2017-11-08T08:50:42.139Z,73.7
2017-11-08T08:51:44.570Z,73.5
2017-11-08T08:52:47.359Z,73.1
2017-11-08T08:53:49.797Z,72.9
2017-11-08T08:54:52.235Z,72.9
2017-11-08T08:55:54.665Z,72.9
2017-11-08T08:56:57.105Z,73.1
2017-11-08T08:57:59.552Z,73.4
2017-11-08T08:59:01.987Z,73.6
2017-11-08T09:00:04.415Z,73.7
2017-11-08T09:01:06.865Z,73.4
2017-11-08T09:02:09.645Z,73.3
2017-11-08T09:03:12.080Z,72.8
2017-11-08T09:04:14.518Z,72.5
2017-11-08T09:05:16.957Z,72.5
2017-11-08T09:06:19.389Z,72.6
2017-11-08T09:07:21.824Z,72.4
2017-11-08T09:08:24.257Z,72.3
2017-11-08T09:09:26.726Z,72.4
2017-11-08T09:10:29.165Z,72.5
2017-11-08T09:11:31.595Z,72.5
2017-11-08T09:12:34.030Z,72.7
2017-11-08T09:13:36.457Z,72.6
2017-11-08T09:14:38.911Z,72.4
2017-11-08T09:15:41.340Z,72.4
2017-11-08T09:16:43.762Z,72.1
2017-11-08T09:17:46.213Z,72.2
2017-11-08T09:18:48.623Z,72.2
2017-11-08T09:19:51.044Z,72.3
2017-11-08T09:20:53.491Z,72.1
2017-11-08T09:21:55.922Z,72
2017-11-08T09:22:58.357Z,72
2017-11-08T09:24:00.795Z,72.2
2017-11-08T09:25:03.232Z,72.5
2017-11-08T09:26:05.664Z,72.6
2017-11-08T09:27:08.101Z,72.7
2017-11-08T09:28:10.906Z,72.7
2017-11-08T09:29:13.392Z,72.7
2017-11-08T09:30:15.827Z,72.7
2017-11-08T09:31:18.265Z,72.4
2017-11-08T09:32:20.696Z,72.7
2017-11-08T09:33:23.148Z,73
2017-11-08T09:34:25.599Z,73.3
2017-11-08T09:35:28.024Z,73.6
2017-11-08T09:36:30.462Z,74
2017-11-08T09:37:32.897Z,74.6
2017-11-08T09:38:35.331Z,75
2017-11-08T09:39:37.762Z,75.2
2017-11-08T09:40:40.190Z,75.5
2017-11-08T09:41:42.618Z,75.5
2017-11-08T09:42:45.078Z,75.4
2017-11-08T09:43:47.499Z,75.2
2017-11-08T09:44:50.303Z,75.3
2017-11-08T09:45:52.754Z,75.3
2017-11-08T09:46:55.179Z,74.9
2017-11-08T09:47:57.618Z,74.4
2017-11-08T09:49:00.066Z,74.1
2017-11-08T09:50:02.505Z,74
2017-11-08T09:51:04.965Z,73.7
2017-11-08T09:52:07.382Z,73.5
2017-11-08T09:53:09.824Z,73.3
2017-11-08T09:54:12.632Z,73.1
2017-11-08T09:55:15.069Z,72.6
2017-11-08T09:56:17.494Z,72.3
2017-11-08T09:57:20.659Z,72
2017-11-08T09:58:23.093Z,71.4
2017-11-08T09:59:25.533Z,71.4
2017-11-08T10:00:27.964Z,71.7
2017-11-08T10:01:30.397Z,72.1
2017-11-08T10:02:32.833Z,72.2
2017-11-08T10:03:35.273Z,72.4
2017-11-08T10:04:38.063Z,72.4
2017-11-08T10:05:40.515Z,72.3
2017-11-08T10:06:42.996Z,72
2017-11-08T10:07:45.422Z,71.6
2017-11-08T10:08:47.828Z,71.2
2017-11-08T10:09:50.318Z,71.2
2017-11-08T10:10:52.727Z,71
2017-11-08T10:11:55.520Z,70.5
2017-11-08T10:12:57.981Z,70.2
2017-11-08T10:14:00.880Z,70.4
2017-11-08T10:15:03.661Z,70.7
2017-11-08T10:16:06.300Z,70.9
2017-11-08T10:17:09.530Z,71
2017-11-08T10:18:11.970Z,71.1
2017-11-08T10:19:14.398Z,71.2
2017-11-08T10:20:16.839Z,71
2017-11-08T10:21:19.287Z,70.7
2017-11-08T10:22:21.714Z,70.7
2017-11-08T10:23:24.161Z,70.8
2017-11-08T10:24:26.609Z,71
2017-11-08T10:25:29.043Z,71.2
2017-11-08T10:26:31.485Z,71.4
2017-11-08T10:27:33.921Z,71.3
2017-11-08T10:28:36.353Z,70.8
2017-11-08T10:29:39.159Z,70.5
2017-11-08T10:30:41.586Z,70.5
2017-11-08T10:31:44.382Z,70.3
2017-11-08T10:32:46.819Z,70.1
2017-11-08T10:33:49.259Z,70.2
2017-11-08T10:34:51.697Z,70
2017-11-08T10:35:54.136Z,69.6
2017-11-08T10:36:56.568Z,69.4
2017-11-08T10:37:59.369Z,69.5
2017-11-08T10:39:01.807Z,69.6
2017-11-08T10:40:04.240Z,69.6
2017-11-08T10:41:06.670Z,69.6
2017-11-08T10:42:12.473Z,69.6
2017-11-08T10:43:16.106Z,69.5
2017-11-08T10:44:18.551Z,69.2
2017-11-08T10:45:20.985Z,69.4
2017-11-08T10:46:23.823Z,69.1
2017-11-08T10:47:26.607Z,69.1
2017-11-08T10:48:29.043Z,69.2
2017-11-08T10:49:31.837Z,69.2
2017-11-08T10:50:34.263Z,69.6
2017-11-08T10:51:36.697Z,69.8
2017-11-08T10:52:39.130Z,69.8
2017-11-08T10:53:41.560Z,69.7
2017-11-08T10:54:44.005Z,69.7
2017-11-08T10:55:46.441Z,69.8
2017-11-08T10:56:48.862Z,69.7
2017-11-08T10:57:51.301Z,69.9
2017-11-08T10:58:53.738Z,69.7
2017-11-08T10:59:56.176Z,69.8
2017-11-08T11:00:58.622Z,69.6
2017-11-08T11:02:01.032Z,69.4
2017-11-08T11:03:03.465Z,69.4
2017-11-08T11:04:05.909Z,70
2017-11-08T11:05:08.335Z,70
2017-11-08T11:06:10.759Z,69.9
2017-11-08T11:07:13.547Z,70
2017-11-08T11:08:15.978Z,70.1
2017-11-08T11:09:18.412Z,70.2
2017-11-08T11:10:20.837Z,70.3
2017-11-08T11:11:23.621Z,70.3
2017-11-08T11:12:26.056Z,70
2017-11-08T11:13:28.860Z,70.1
2017-11-08T11:14:31.290Z,70.2
2017-11-08T11:15:33.721Z,70.3
2017-11-08T11:16:36.514Z,70.4
2017-11-08T11:17:38.944Z,70.4
2017-11-08T11:18:41.379Z,70.3
2017-11-08T11:19:43.813Z,70.3
2017-11-08T11:20:46.250Z,70.2
2017-11-08T11:21:48.677Z,70.3
2017-11-08T11:22:51.110Z,70.5
2017-11-08T11:23:53.540Z,70.5
2017-11-08T11:24:55.975Z,70.4
2017-11-08T11:25:58.405Z,70.6
2017-11-08T11:27:00.831Z,70.6
2017-11-08T11:28:03.617Z,70.7
2017-11-08T11:29:06.060Z,70.8
2017-11-08T11:30:08.858Z,70.8
2017-11-08T11:31:11.294Z,70.8
2017-11-08T11:32:13.734Z,70.8
2017-11-08T11:33:16.159Z,70.7
2017-11-08T11:34:18.591Z,70.7
2017-11-08T11:35:21.030Z,70.8
2017-11-08T11:36:23.444Z,70.6
2017-11-08T11:37:25.893Z,70.7
2017-11-08T11:38:28.323Z,70.4
2017-11-08T11:39:30.750Z,70.5
2017-11-08T11:40:33.191Z,70.6
2017-11-08T11:41:35.614Z,70.7
2017-11-08T11:42:38.042Z,70.8
2017-11-08T11:43:40.479Z,70.9
2017-11-08T11:44:42.911Z,71
2017-11-08T11:45:45.353Z,71
2017-11-08T11:46:47.761Z,71
2017-11-08T11:47:50.192Z,71.1
2017-11-08T11:48:52.635Z,71.1
2017-11-08T11:49:55.068Z,71.1
2017-11-08T11:50:57.505Z,71
2017-11-08T11:51:59.936Z,70.9
2017-11-08T11:53:02.368Z,70.9
2017-11-08T11:54:05.177Z,70.7
2017-11-08T11:55:07.602Z,70.7
2017-11-08T11:56:10.031Z,70.7
2017-11-08T11:57:12.468Z,70.7
2017-11-08T11:58:14.895Z,70.9
2017-11-08T11:59:17.316Z,70.9
2017-11-08T12:00:20.121Z,70.9
2017-11-08T12:01:22.532Z,70.9
2017-11-08T12:02:24.952Z,71
2017-11-08T12:03:27.759Z,71
2017-11-08T12:04:30.540Z,71.1
2017-11-08T12:05:32.970Z,71.1
2017-11-08T12:06:35.759Z,71
2017-11-08T12:07:38.195Z,71
2017-11-08T12:08:40.636Z,71
2017-11-08T12:09:43.074Z,71.1
2017-11-08T12:10:45.489Z,71.1
2017-11-08T12:11:47.925Z,71.1
2017-11-08T12:12:50.369Z,70.9
2017-11-08T12:13:52.806Z,70.9
2017-11-08T12:14:55.232Z,71
2017-11-08T12:15:57.665Z,70.9
2017-11-08T12:17:00.094Z,70.9
2017-11-08T12:18:02.535Z,70.9
2017-11-08T12:19:04.990Z,70.7
2017-11-08T12:20:07.433Z,70.8
2017-11-08T12:21:09.855Z,70.8
2017-11-08T12:22:12.314Z,70.8
2017-11-08T12:23:14.740Z,70.9
2017-11-08T12:24:17.166Z,70.9
2017-11-08T12:25:19.951Z,70.9
2017-11-08T12:26:22.377Z,70.9
2017-11-08T12:27:24.813Z,70.8
2017-11-08T12:28:27.248Z,70.6
2017-11-08T12:29:29.684Z,70.7
2017-11-08T12:30:32.128Z,70.8
2017-11-08T12:31:34.934Z,70.9
2017-11-08T12:32:37.374Z,71.1
2017-11-08T12:33:39.798Z,71.1
2017-11-08T12:34:42.591Z,71.1
2017-11-08T12:35:45.378Z,71.1
2017-11-08T12:36:47.821Z,71.1
2017-11-08T12:37:50.254Z,71.1
2017-11-08T12:38:52.693Z,71.1
2017-11-08T12:39:55.130Z,71.2
2017-11-08T12:40:57.564Z,71.1
2017-11-08T12:41:59.996Z,70.9
2017-11-08T12:43:02.416Z,70.6
2017-11-08T12:44:04.859Z,70.7
2017-11-08T12:45:07.358Z,70.6
2017-11-08T12:46:09.771Z,70.6
2017-11-08T12:47:12.225Z,70.7
2017-11-08T12:48:14.649Z,70.9
2017-11-08T12:49:17.084Z,71.1
2017-11-08T12:50:19.533Z,71
2017-11-08T12:51:22.296Z,71.1
2017-11-08T12:52:24.724Z,71
2017-11-08T12:53:27.164Z,70.9
2017-11-08T12:54:29.595Z,70.8
2017-11-08T12:55:32.026Z,70.5
2017-11-08T12:56:34.820Z,70.4
2017-11-08T12:57:37.617Z,70.5
2017-11-08T12:58:40.057Z,70.4
2017-11-08T12:59:42.490Z,70.1
2017-11-08T13:00:44.914Z,70
2017-11-08T13:01:47.360Z,70
2017-11-08T13:02:49.785Z,70
2017-11-08T13:03:52.217Z,69.9
2017-11-08T13:04:54.649Z,69.8
2017-11-08T13:05:57.081Z,69.6
2017-11-08T13:06:59.512Z,69.5
2017-11-08T13:08:01.953Z,69.3
2017-11-08T13:09:04.379Z,69.3
2017-11-08T13:10:07.164Z,69.1
2017-11-08T13:11:09.603Z,69.2
2017-11-08T13:12:12.035Z,69.4
2017-11-08T13:13:14.827Z,69.4
2017-11-08T13:14:17.267Z,69.3
2017-11-08T13:15:19.690Z,69.4
2017-11-08T13:16:22.129Z,69.5
2017-11-08T13:17:24.575Z,69.5
2017-11-08T13:18:26.999Z,69.6
2017-11-08T13:19:29.426Z,69.8
2017-11-08T13:20:31.888Z,69.7
2017-11-08T13:21:34.323Z,69.7
2017-11-08T13:22:36.752Z,69.7
2017-11-08T13:23:39.194Z,69.6
2017-11-08T13:24:41.618Z,69.6
2017-11-08T13:25:44.052Z,69.6
2017-11-08T13:26:46.496Z,69.7
2017-11-08T13:27:48.918Z,69.7
2017-11-08T13:28:51.705Z,69.4
2017-11-08T13:29:54.138Z,69.1
2017-11-08T13:30:56.571Z,69
2017-11-08T13:31:59.030Z,68.9
2017-11-08T13:33:01.462Z,68.8
2017-11-08T13:34:03.884Z,68.9
2017-11-08T13:35:06.311Z,68.7
2017-11-08T13:36:08.746Z,68.6
2017-11-08T13:37:11.880Z,68.6
2017-11-08T13:38:14.320Z,68.7
2017-11-08T13:39:16.774Z,68.8
2017-11-08T13:40:19.591Z,68.9
2017-11-08T13:41:22.049Z,69
2017-11-08T13:42:24.486Z,68.9
2017-11-08T13:43:26.914Z,68.6
2017-11-08T13:44:29.351Z,68.7
2017-11-08T13:45:32.166Z,69
2017-11-08T13:46:34.593Z,69
2017-11-08T13:47:37.018Z,69
2017-11-08T13:48:39.457Z,69.2
2017-11-08T13:49:42.662Z,69.1
2017-11-08T13:50:45.110Z,69.1
2017-11-08T13:51:47.533Z,69.4
2017-11-08T13:52:50.319Z,69.6
2017-11-08T13:53:52.755Z,69.7
2017-11-08T13:54:55.553Z,69.9
2017-11-08T13:55:57.984Z,69.8
2017-11-08T13:57:00.420Z,69.9
2017-11-08T13:58:03.232Z,69.8